»·PEaware :: ACA159 CYYC-CYVR

ACA159 :: CYYC-CYVR

FLIGHT INFORMATION

Flight Status: Arrived
Operator:
Air Canada
More flights by this operator :: More flights under this callsign
Pilot: Anonymous 13363 (13363)
Aircraft: AIRBUS A320
(A320)
More flights by this aircraft type
Origin: CYYC Calgary Intl
Canada
Destination: CYVR Vancouver Intl
Canada
More flights between these airports :: More routes between these airports
Route: BOTAG Q894 BOOTH STAVE8
File this flight plan on PilotEdge
Remarks:
Altitude:
(Current/Filed)
34,000ft
Speed:
(Current/Filed)
500kts
Departed: 04-Dec-16 01:03 AM
Arrived: 04-Dec-16 02:18 AM
Distance/Time
Traveled:
370nm/1:15
Distance/Time
To Go:
Arrived

Flight Plot

Page will automatically refresh every two minutes.

Flight plan parsing failed; only flown route is shown


Map Options




Map Legend


Flown Route
Filed Route
Departure Airport
Arrival Airport
Navaid (VOR, NDB)
Fix

Horizontal Profiles

Position Reports

Time Latitude Longitude Heading Altitude Ground
Speed
04-Dec-16 00:45 51.128060 -114.008678 15 3565ft 0kts
04-Dec-16 00:46 51.128060 -114.008678 15 3566ft 0kts
04-Dec-16 00:47 51.127463 -114.008491 276 3565ft 0kts
04-Dec-16 00:48 51.127463 -114.008491 276 3565ft 0kts
04-Dec-16 00:49 51.127463 -114.008491 276 3565ft 0kts
04-Dec-16 00:50 51.127467 -114.008568 274 3565ft 2kts
04-Dec-16 00:51 51.128136 -114.011337 256 3565ft 10kts
04-Dec-16 00:52 51.126123 -114.014529 226 3565ft 13kts
04-Dec-16 00:53 51.122814 -114.015560 178 3565ft 16kts
04-Dec-16 00:54 51.118254 -114.017864 180 3565ft 14kts
04-Dec-16 00:55 51.113694 -114.018119 158 3565ft 9kts
04-Dec-16 00:56 51.101667 -114.017874 180 3565ft 44kts
04-Dec-16 00:57 51.097598 -114.021264 3 3566ft 0kts
04-Dec-16 00:58 51.097598 -114.021264 3 3566ft 0kts
04-Dec-16 00:59 51.117339 -114.021333 358 3566ft 164kts
04-Dec-16 01:00 51.158546 -114.036970 289 5067ft 169kts
04-Dec-16 01:01 51.130824 -114.101327 229 5768ft 220kts
04-Dec-16 01:02 51.086646 -114.180316 247 6800ft 274kts
04-Dec-16 01:03 51.069948 -114.295479 257 9201ft 273kts
04-Dec-16 01:04 51.049076 -114.418220 258 10439ft 316kts
04-Dec-16 01:05 51.024704 -114.567075 258 11076ft 376kts
04-Dec-16 01:06 50.999514 -114.723014 257 13302ft 380kts
04-Dec-16 01:07 50.973496 -114.881170 258 15378ft 387kts
04-Dec-16 01:08 50.945879 -115.046591 257 17342ft 389kts
04-Dec-16 01:09 50.917855 -115.212719 256 18958ft 390kts
04-Dec-16 01:10 50.890139 -115.374720 256 20115ft 392kts
04-Dec-16 01:11 50.861321 -115.541911 257 21176ft 396kts
04-Dec-16 01:12 50.835631 -115.690959 257 22072ft 401kts
04-Dec-16 01:13 50.806068 -115.862114 256 23182ft 406kts
04-Dec-16 01:14 50.775804 -116.033452 257 24308ft 410kts
04-Dec-16 01:15 50.745192 -116.204970 257 25931ft 403kts
04-Dec-16 01:16 50.714784 -116.373782 258 27336ft 397kts
04-Dec-16 01:17 50.684755 -116.538999 258 28499ft 392kts
04-Dec-16 01:18 50.655598 -116.699298 259 29431ft 388kts
04-Dec-16 01:19 50.626991 -116.855587 259 30515ft 380kts
04-Dec-16 01:20 50.598409 -117.008963 259 31478ft 370kts
04-Dec-16 01:21 50.569672 -117.161764 259 32308ft 362kts
04-Dec-16 01:22 50.541461 -117.310688 259 32757ft 360kts
04-Dec-16 01:23 50.512808 -117.460633 259 33117ft 359kts
04-Dec-16 01:24 50.484070 -117.609837 260 33444ft 357kts
04-Dec-16 01:25 50.456400 -117.754713 259 33752ft 357kts
04-Dec-16 01:26 50.427675 -117.902177 259 33951ft 353kts
04-Dec-16 01:27 50.398763 -118.048861 259 33946ft 352kts
04-Dec-16 01:28 50.351712 -118.184392 240 33937ft 377kts
04-Dec-16 01:29 50.309622 -118.324093 258 33944ft 352kts
04-Dec-16 01:30 50.278577 -118.467159 259 33946ft 352kts
04-Dec-16 01:31 50.247778 -118.612145 259 33952ft 352kts
04-Dec-16 01:32 50.217847 -118.754657 259 33984ft 353kts
04-Dec-16 01:33 50.186781 -118.899709 258 33994ft 351kts
04-Dec-16 01:34 50.155744 -119.043195 258 33993ft 346kts
04-Dec-16 01:35 50.124792 -119.185268 258 33992ft 345kts
04-Dec-16 01:36 50.093782 -119.326690 258 33993ft 344kts
04-Dec-16 01:37 50.062673 -119.467564 258 33991ft 344kts
04-Dec-16 01:38 50.037314 -119.581552 259 33986ft 344kts
04-Dec-16 01:39 50.008140 -119.713874 258 33994ft 345kts
04-Dec-16 01:40 49.996467 -119.766967 257 34002ft 346kts
04-Dec-16 01:41 49.973024 -119.870843 258 33884ft 344kts
04-Dec-16 01:42 49.943229 -120.002339 256 30230ft 365kts
04-Dec-16 01:43 49.909820 -120.148805 256 29981ft 365kts
04-Dec-16 01:44 49.879717 -120.279287 256 29972ft 364kts
04-Dec-16 01:45 49.845676 -120.424807 257 29066ft 355kts
04-Dec-16 01:46 49.816046 -120.569096 258 28030ft 350kts
04-Dec-16 01:47 49.789063 -120.705675 257 27057ft 344kts
04-Dec-16 01:48 49.761739 -120.846871 257 26092ft 340kts
04-Dec-16 01:49 49.734768 -120.985731 257 25117ft 337kts
04-Dec-16 01:50 49.712133 -121.101548 255 24294ft 338kts
04-Dec-16 01:51 49.684739 -121.240690 254 23176ft 339kts
04-Dec-16 01:52 49.657285 -121.379129 254 21598ft 335kts
04-Dec-16 01:53 49.630059 -121.515484 253 19819ft 331kts
04-Dec-16 01:54 49.603053 -121.649786 253 17992ft 327kts
04-Dec-16 01:55 49.577255 -121.779762 252 16212ft 325kts
04-Dec-16 01:56 49.550557 -121.911076 252 14348ft 322kts
04-Dec-16 01:57 49.525107 -122.035160 251 12630ft 320kts
04-Dec-16 01:58 49.482172 -122.148600 238 10913ft 315kts
04-Dec-16 01:59 49.439125 -122.257751 238 10137ft 275kts
04-Dec-16 02:00 49.401359 -122.354503 238 9214ft 261kts
04-Dec-16 02:01 49.364307 -122.449656 238 8033ft 259kts
04-Dec-16 02:02 49.327461 -122.543974 237 6857ft 256kts
04-Dec-16 02:03 49.290996 -122.637003 237 5697ft 254kts
04-Dec-16 02:04 49.257389 -122.723759 237 4611ft 250kts
04-Dec-16 02:05 49.221864 -122.814151 238 3572ft 242kts
04-Dec-16 02:06 49.190091 -122.894918 240 3132ft 207kts
04-Dec-16 02:07 49.175522 -122.973552 298 2534ft 201kts
04-Dec-16 02:08 49.188006 -123.050804 279 1466ft 176kts
04-Dec-16 02:09 49.195246 -123.113802 279 656ft 135kts
04-Dec-16 02:10 49.201689 -123.170366 278 23ft 125kts
04-Dec-16 02:11 49.202101 -123.188553 231 22ft 18kts
04-Dec-16 02:12 49.200420 -123.183914 112 22ft 14kts
04-Dec-16 02:13 49.199531 -123.178276 119 22ft 1kts
04-Dec-16 02:14 49.199746 -123.178818 115 22ft 14kts
04-Dec-16 02:15 49.202738 -123.179595 280 22ft 35kts
04-Dec-16 02:16 49.199295 -123.149093 279 171ft 137kts
04-Dec-16 02:17 49.200812 -123.162388 278 48ft 134kts
04-Dec-16 02:18 49.197927 -123.176731 185 23ft 0kts
04-Dec-16 02:19 49.197927 -123.176731 185 23ft 0kts
04-Dec-16 02:20 49.197927 -123.176731 185 23ft 0kts

Navigation Log

Ident Type
Flight plan parsing failed, navigation log unavailable